^^
Saratoga-Weather Station Historical Data
Daily Summary for March 2, 2020 Units:  Metric    English   Both
Daily Weekly Monthly Yearly Custom
  High: Low: Average:
Temperature: 23.2 °C 12.4 °C 16.6 °C
Dew Point: 12.9 °C 10.2 °C 11.6 °C
Humidity: 92% 47% 74%
Wind Speed: 7.9km/h 0km/h 1.3km/h
Wind Gust: 11.3km/h - -
Wind- - South
Pressure: 1018.6 hPa 1015.9 hPa -
Precipitation: 0.0 mm    
Historical Graphs
 
 
Tabular Data for March 2, 2020
Time Temperature Dew Point Pressure Wind Wind Speed Wind Gust Humidity Rainfall Rate (Hourly) solar
00:02 14.1 °C 12.5 °C 1016.6 hPa WSW 1.4 km/h 6.4 km/h 90% 0.0 mm 0 W/m2
00:07 14 °C 12.4 °C 1016.6 hPa WSW 1.4 km/h 3.2 km/h 90% 0.0 mm 0 W/m2
00:12 14 °C 12.4 °C 1016.6 hPa WSW 1.4 km/h 4.8 km/h 90% 0.0 mm 0 W/m2
00:17 14 °C 12.4 °C 1016.6 hPa West 1.4 km/h 3.2 km/h 90% 0.0 mm 0 W/m2
00:22 13.9 °C 12.3 °C 1016.6 hPa SW 1.4 km/h 3.2 km/h 90% 0.0 mm 0 W/m2
00:27 13.9 °C 12.3 °C 1016.6 hPa NNW 1.4 km/h 8 km/h 90% 0.0 mm 0 W/m2
00:32 14 °C 12.4 °C 1016.6 hPa WNW 3.2 km/h 4.8 km/h 90% 0.0 mm 0 W/m2
00:37 14 °C 12.2 °C 1016.6 hPa SSW 6.4 km/h 8 km/h 89% 0.0 mm 0 W/m2
00:42 14 °C 12.2 °C 1016.6 hPa WNW 1.4 km/h 3.2 km/h 89% 0.0 mm 0 W/m2
00:47 14.1 °C 12.3 °C 1016.6 hPa West 3.2 km/h 6.4 km/h 89% 0.0 mm 0 W/m2
00:52 14.1 °C 12.3 °C 1016.6 hPa West 1.4 km/h 3.2 km/h 89% 0.0 mm 0 W/m2
00:57 14 °C 12.2 °C 1016.6 hPa West 1.4 km/h 3.2 km/h 89% 0.0 mm 0 W/m2
01:02 13.9 °C 12.1 °C 1016.6 hPa West 1.4 km/h 3.2 km/h 89% 0.0 mm 0 W/m2
01:07 13.9 °C 12.3 °C 1016.6 hPa WNW 1.4 km/h 1.6 km/h 90% 0.0 mm 0 W/m2
01:12 13.9 °C 12.1 °C 1016.6 hPa Calm   1.6 km/h 89% 0.0 mm 0 W/m2
01:17 14.1 °C 12.3 °C 1016.6 hPa West 3.2 km/h 6.4 km/h 89% 0.0 mm 0 W/m2
01:22 14.2 °C 12.1 °C 1016.6 hPa West 1.4 km/h 4.8 km/h 87% 0.0 mm 0 W/m2
01:27 14.3 °C 12.2 °C 1016.6 hPa Calm   4.8 km/h 87% 0.0 mm 0 W/m2
01:32 14.4 °C 12.3 °C 1016.6 hPa SSE 1.4 km/h 1.6 km/h 87% 0.0 mm 0 W/m2
01:37 14.3 °C 12.2 °C 1016.6 hPa Calm   4.8 km/h 87% 0.0 mm 0 W/m2
01:42 14.2 °C 12.2 °C 1016.6 hPa WNW 1.4 km/h 6.4 km/h 88% 0.0 mm 0 W/m2
01:47 14.1 °C 12 °C 1016.6 hPa ENE 1.4 km/h 1.6 km/h 87% 0.0 mm 0 W/m2
01:52 14.1 °C 12 °C 1016.6 hPa Calm   1.6 km/h 87% 0.0 mm 0 W/m2
01:57 14.1 °C 12.1 °C 1016.6 hPa Calm   1.6 km/h 88% 0.0 mm 0 W/m2
02:02 13.9 °C 11.9 °C 1016.6 hPa Calm   3.2 km/h 88% 0.0 mm 0 W/m2
02:07 13.8 °C 12 °C 1016.3 hPa Calm   1.6 km/h 89% 0.0 mm 0 W/m2
02:12 13.7 °C 11.9 °C 1016.3 hPa Calm   3.2 km/h 89% 0.0 mm 0 W/m2
02:17 13.7 °C 11.9 °C 1016.6 hPa SSE 1.4 km/h 4.8 km/h 89% 0.0 mm 0 W/m2
02:22 13.7 °C 11.9 °C 1016.3 hPa ESE 1.4 km/h 3.2 km/h 89% 0.0 mm 0 W/m2
02:27 13.7 °C 11.9 °C 1016.3 hPa SSE 1.4 km/h 3.2 km/h 89% 0.0 mm 0 W/m2
02:32 13.6 °C 11.8 °C 1016.3 hPa SE 1.4 km/h 1.6 km/h 89% 0.0 mm 0 W/m2
02:37 13.6 °C 11.6 °C 1016.3 hPa Calm   3.2 km/h 88% 0.0 mm 0 W/m2
02:42 13.6 °C 11.8 °C 1016.3 hPa Calm   1.6 km/h 89% 0.0 mm 0 W/m2
02:48 13.5 °C 11.7 °C 1016.3 hPa Calm   3.2 km/h 89% 0.0 mm 0 W/m2
02:53 13.4 °C 11.6 °C 1016.3 hPa SE 1.4 km/h 4.8 km/h 89% 0.0 mm 0 W/m2
02:58 13.3 °C 11.5 °C 1016.3 hPa SE 1.4 km/h 3.2 km/h 89% 0.0 mm 0 W/m2
03:03 13.2 °C 11.4 °C 1016.3 hPa Calm   3.2 km/h 89% 0.0 mm 0 W/m2
03:08 13.1 °C 11.5 °C 1016.3 hPa Calm   3.2 km/h 90% 0.0 mm 0 W/m2
03:13 13.1 °C 11.5 °C 1016.3 hPa WSW 3.2 km/h 3.2 km/h 90% 0.0 mm 0 W/m2
03:18 13 °C 11.4 °C 1016.3 hPa Calm     90% 0.0 mm 0 W/m2
03:23 12.9 °C 11.3 °C 1016.3 hPa Calm     90% 0.0 mm 0 W/m2
03:28 12.8 °C 11.4 °C 1016.3 hPa Calm     91% 0.0 mm 0 W/m2
03:33 12.7 °C 11.3 °C 1016.3 hPa West 1.4 km/h 4.8 km/h 91% 0.0 mm 0 W/m2
03:38 12.7 °C 11.3 °C 1016.3 hPa Calm   1.6 km/h 91% 0.0 mm 0 W/m2
03:43 12.8 °C 11.5 °C 1016.3 hPa Calm   4.8 km/h 92% 0.0 mm 0 W/m2
03:48 12.8 °C 11.4 °C 1016.3 hPa NNW 3.2 km/h 4.8 km/h 91% 0.0 mm 0 W/m2
03:53 12.8 °C 11.4 °C 1016.3 hPa NNW 1.4 km/h 6.4 km/h 91% 0.0 mm 0 W/m2
03:58 13 °C 11.4 °C 1016.3 hPa Calm   3.2 km/h 90% 0.0 mm 0 W/m2
04:03 13.1 °C 11.5 °C 1016.3 hPa SSE 1.4 km/h 1.6 km/h 90% 0.0 mm 0 W/m2
04:08 13.1 °C 11.5 °C 1016.3 hPa NE 1.4 km/h 4.8 km/h 90% 0.0 mm 0 W/m2
04:13 13.2 °C 11.4 °C 1016.3 hPa Calm   1.6 km/h 89% 0.0 mm 0 W/m2
04:18 13.3 °C 11.4 °C 1016.3 hPa WNW 3.2 km/h 3.2 km/h 88% 0.0 mm 0 W/m2
04:23 13.4 °C 11.5 °C 1016.3 hPa East 4.7 km/h 9.7 km/h 88% 0.0 mm 0 W/m2
04:28 13.4 °C 11.3 °C 1016.3 hPa NW 1.4 km/h 3.2 km/h 87% 0.0 mm 0 W/m2
04:33 13.4 °C 11.3 °C 1016.3 hPa ENE 1.4 km/h 1.6 km/h 87% 0.0 mm 0 W/m2
04:38 13.4 °C 11.3 °C 1016.3 hPa NE 1.4 km/h 3.2 km/h 87% 0.0 mm 0 W/m2
04:43 13.5 °C 11.4 °C 1015.9 hPa Calm   1.6 km/h 87% 0.0 mm 0 W/m2
04:48 13.4 °C 11.5 °C 1016.3 hPa Calm   1.6 km/h 88% 0.0 mm 0 W/m2
04:53 13.3 °C 11.5 °C 1016.3 hPa Calm   1.6 km/h 89% 0.0 mm 0 W/m2
04:58 13.2 °C 11.3 °C 1016.3 hPa Calm     88% 0.0 mm 0 W/m2
05:03 13.2 °C 11.4 °C 1015.9 hPa Calm     89% 0.0 mm 0 W/m2
05:08 13.2 °C 11.4 °C 1015.9 hPa Calm     89% 0.0 mm 0 W/m2
05:13 13.1 °C 11.5 °C 1015.9 hPa Calm   3.2 km/h 90% 0.0 mm 0 W/m2
05:18 13 °C 11.2 °C 1015.9 hPa East 4.7 km/h 4.8 km/h 89% 0.0 mm 0 W/m2
05:23 13.1 °C 11.3 °C 1015.9 hPa East 1.4 km/h 1.6 km/h 89% 0.0 mm 0 W/m2
05:28 13.2 °C 11.3 °C 1015.9 hPa East 1.4 km/h 1.6 km/h 88% 0.0 mm 0 W/m2
05:33 13.2 °C 11.3 °C 1015.9 hPa Calm     88% 0.0 mm 0 W/m2
05:38 13.1 °C 11.2 °C 1015.9 hPa Calm   1.6 km/h 88% 0.0 mm 0 W/m2
05:43 12.9 °C 11 °C 1015.9 hPa ESE 1.4 km/h 1.6 km/h 88% 0.0 mm 0 W/m2
05:48 12.8 °C 10.9 °C 1015.9 hPa Calm   1.6 km/h 88% 0.0 mm 0 W/m2
05:53 12.8 °C 11 °C 1015.9 hPa ENE 1.4 km/h 4.8 km/h 89% 0.0 mm 0 W/m2
05:59 12.8 °C 10.9 °C 1015.9 hPa Calm     88% 0.0 mm 0 W/m2
06:04 12.8 °C 10.9 °C 1015.9 hPa WNW 1.4 km/h 3.2 km/h 88% 0.0 mm 0 W/m2
06:09 12.7 °C 10.8 °C 1015.9 hPa Calm   1.6 km/h 88% 0.0 mm 0 W/m2
06:14 12.7 °C 10.9 °C 1016.3 hPa SW 1.4 km/h 3.2 km/h 89% 0.0 mm 0 W/m2
06:19 12.6 °C 10.8 °C 1016.3 hPa Calm   1.6 km/h 89% 0.0 mm 0 W/m2
06:24 12.5 °C 10.9 °C 1016.3 hPa Calm   1.6 km/h 90% 0.0 mm 0 W/m2
06:29 12.4 °C 10.8 °C 1016.3 hPa SW 1.4 km/h 1.6 km/h 90% 0.0 mm 0 W/m2
06:34 12.4 °C 10.8 °C 1016.3 hPa Calm   1.6 km/h 90% 0.0 mm 0 W/m2
06:39 12.4 °C 10.8 °C 1016.3 hPa Calm     90% 0.0 mm 0 W/m2
06:44 12.4 °C 11 °C 1016.3 hPa Calm   1.6 km/h 91% 0.0 mm 0 W/m2
06:49 12.4 °C 11 °C 1016.3 hPa Calm   1.6 km/h 91% 0.0 mm 0 W/m2
06:54 12.5 °C 11.1 °C 1016.3 hPa Calm   1.6 km/h 91% 0.0 mm 0 W/m2
06:59 12.5 °C 11.1 °C 1016.3 hPa Calm   3.2 km/h 91% 0.0 mm 0 W/m2
07:04 12.6 °C 11.2 °C 1016.3 hPa NW 3.2 km/h 3.2 km/h 91% 0.0 mm 0 W/m2
07:09 12.7 °C 11.1 °C 1016.3 hPa Calm     90% 0.0 mm 5 W/m2
07:14 12.8 °C 11.2 °C 1016.3 hPa Calm     90% 0.0 mm 5 W/m2
07:19 12.9 °C 11.1 °C 1016.3 hPa Calm   1.6 km/h 89% 0.0 mm 7 W/m2
07:24 13 °C 11.2 °C 1016.6 hPa ENE 1.4 km/h 1.6 km/h 89% 0.0 mm 11 W/m2
07:29 13 °C 11.2 °C 1016.6 hPa Calm   1.6 km/h 89% 0.0 mm 14 W/m2
07:34 13 °C 11.2 °C 1016.6 hPa Calm   1.6 km/h 89% 0.0 mm 19 W/m2
07:39 12.9 °C 11.1 °C 1016.6 hPa Calm     89% 0.0 mm 26 W/m2
07:44 13 °C 11.2 °C 1016.6 hPa Calm   1.6 km/h 89% 0.0 mm 32 W/m2
07:49 13.1 °C 11.5 °C 1016.6 hPa Calm     90% 0.0 mm 37 W/m2
07:54 13.1 °C 11.5 °C 1016.6 hPa Calm     90% 0.0 mm 47 W/m2
07:59 13.2 °C 11.6 °C 1016.6 hPa Calm     90% 0.0 mm 53 W/m2
08:05 13.2 °C 11.6 °C 1016.6 hPa Calm     90% 0.0 mm 63 W/m2
08:10 13.3 °C 11.5 °C 1016.6 hPa ENE 1.4 km/h 1.6 km/h 89% 0.0 mm 65 W/m2
08:15 13.4 °C 11.5 °C 1016.6 hPa ESE 3.2 km/h 3.2 km/h 88% 0.0 mm 69 W/m2
08:20 13.5 °C 11.4 °C 1016.6 hPa Calm   1.6 km/h 87% 0.0 mm 67 W/m2
08:25 13.6 °C 11.5 °C 1016.6 hPa Calm   1.6 km/h 87% 0.0 mm 72 W/m2
08:30 13.7 °C 11.6 °C 1016.6 hPa East 1.4 km/h 1.6 km/h 87% 0.0 mm 77 W/m2
08:35 13.8 °C 11.7 °C 1016.6 hPa Calm     87% 0.0 mm 190 W/m2
08:40 13.8 °C 11.5 °C 1016.6 hPa Calm     86% 0.0 mm 56 W/m2
08:45 13.9 °C 11.6 °C 1016.6 hPa Calm   1.6 km/h 86% 0.0 mm 74 W/m2
08:50 13.9 °C 11.4 °C 1016.9 hPa Calm     85% 0.0 mm 88 W/m2
08:55 14 °C 11.5 °C 1016.9 hPa NE 3.2 km/h 3.2 km/h 85% 0.0 mm 179 W/m2
09:00 14.1 °C 11.6 °C 1016.9 hPa Calm   3.2 km/h 85% 0.0 mm 134 W/m2
09:05 14.2 °C 11.7 °C 1016.9 hPa Calm   1.6 km/h 85% 0.0 mm 311 W/m2
09:10 14.3 °C 12 °C 1016.9 hPa East 3.2 km/h 3.2 km/h 86% 0.0 mm 135 W/m2
09:15 14.6 °C 12.1 °C 1016.9 hPa NW 1.4 km/h 6.4 km/h 85% 0.0 mm 135 W/m2
09:20 14.8 °C 12.3 °C 1016.9 hPa WNW 1.4 km/h 1.6 km/h 85% 0.0 mm 366 W/m2
09:25 15 °C 12.3 °C 1016.9 hPa Calm   6.4 km/h 84% 0.0 mm 281 W/m2
09:30 15.2 °C 12.3 °C 1016.9 hPa NW 1.4 km/h 3.2 km/h 83% 0.0 mm 127 W/m2
09:35 15.5 °C 12.6 °C 1016.9 hPa West 1.4 km/h 4.8 km/h 83% 0.0 mm 118 W/m2
09:40 15.8 °C 12.9 °C 1016.9 hPa Calm   6.4 km/h 83% 0.0 mm 109 W/m2
09:45 16 °C 12.9 °C 1016.9 hPa East 3.2 km/h 4.8 km/h 82% 0.0 mm 98 W/m2
09:50 16.2 °C 12.7 °C 1016.9 hPa Calm   4.8 km/h 80% 0.0 mm 107 W/m2
09:55 16.2 °C 12.6 °C 1016.9 hPa Calm   1.6 km/h 79% 0.0 mm 151 W/m2
10:00 16.5 °C 12.8 °C 1016.9 hPa Calm   3.2 km/h 79% 0.0 mm 192 W/m2
10:05 16.8 °C 12.7 °C 1016.9 hPa Calm   6.4 km/h 77% 0.0 mm 193 W/m2
10:10 17 °C 12.5 °C 1016.9 hPa NNE 3.2 km/h 3.2 km/h 75% 0.0 mm 239 W/m2
10:15 17.2 °C 12.9 °C 1016.9 hPa Calm   3.2 km/h 76% 0.0 mm 276 W/m2
10:20 17.2 °C 12.7 °C 1017.3 hPa East 6.4 km/h 6.4 km/h 75% 0.0 mm 272 W/m2
10:25 17.2 °C 12.9 °C 1017.3 hPa Calm   4.8 km/h 76% 0.0 mm 237 W/m2
10:30 17.1 °C 12.8 °C 1017.3 hPa Calm   9.7 km/h 76% 0.0 mm 229 W/m2
10:35 17 °C 12.9 °C 1017.3 hPa NE 1.4 km/h 3.2 km/h 77% 0.0 mm 199 W/m2
10:40 16.9 °C 12.8 °C 1017.6 hPa NNW 4.7 km/h 9.7 km/h 77% 0.0 mm 206 W/m2
10:45 16.8 °C 12.7 °C 1017.6 hPa ENE 3.2 km/h 6.4 km/h 77% 0.0 mm 211 W/m2
10:50 16.7 °C 12.6 °C 1017.6 hPa NW 1.4 km/h 9.7 km/h 77% 0.0 mm 227 W/m2
10:55 16.6 °C 12.7 °C 1017.6 hPa North 1.4 km/h 4.8 km/h 78% 0.0 mm 257 W/m2
11:00 16.7 °C 12.8 °C 1017.6 hPa NW 4.7 km/h 8 km/h 78% 0.0 mm 248 W/m2
11:05 16.7 °C 12.6 °C 1017.6 hPa East 1.4 km/h 4.8 km/h 77% 0.0 mm 255 W/m2
11:10 16.8 °C 12.7 °C 1017.6 hPa North 3.2 km/h 4.8 km/h 77% 0.0 mm 274 W/m2
11:15 16.9 °C 12.8 °C 1017.6 hPa ENE 1.4 km/h 4.8 km/h 77% 0.0 mm 271 W/m2
11:20 17.1 °C 12.8 °C 1017.6 hPa WSW 4.7 km/h 6.4 km/h 76% 0.0 mm 267 W/m2
11:25 17.1 °C 12.2 °C 1017.6 hPa North 7.9 km/h 8 km/h 73% 0.0 mm 267 W/m2
11:30 17.1 °C 12 °C 1017.6 hPa NNW 3.2 km/h 3.2 km/h 72% 0.0 mm 274 W/m2
11:35 17.3 °C 12.6 °C 1017.6 hPa East 6.4 km/h 6.4 km/h 74% 0.0 mm 299 W/m2
11:40 17.5 °C 12.8 °C 1017.6 hPa NE 1.4 km/h 3.2 km/h 74% 0.0 mm 316 W/m2
11:45 17.7 °C 12.8 °C 1017.6 hPa NE 1.4 km/h 4.8 km/h 73% 0.0 mm 403 W/m2
11:50 17.9 °C 12.8 °C 1017.6 hPa Calm   9.7 km/h 72% 0.0 mm 294 W/m2
11:55 18 °C 12.4 °C 1017.6 hPa Calm   3.2 km/h 70% 0.0 mm 315 W/m2
12:00 18 °C 12.4 °C 1017.6 hPa Calm   3.2 km/h 70% 0.0 mm 271 W/m2
12:05 18.1 °C 12.3 °C 1017.6 hPa East 3.2 km/h 4.8 km/h 69% 0.0 mm 316 W/m2
12:10 18.2 °C 12.6 °C 1017.6 hPa NNW 1.4 km/h 3.2 km/h 70% 0.0 mm 302 W/m2
12:15 18.3 °C 11.8 °C 1017.6 hPa East 4.7 km/h 4.8 km/h 66% 0.0 mm 359 W/m2
12:20 18.3 °C 11.4 °C 1017.6 hPa ENE 1.4 km/h 4.8 km/h 64% 0.0 mm 301 W/m2
12:25 18.4 °C 11.9 °C 1017.6 hPa East 1.4 km/h 3.2 km/h 66% 0.0 mm 299 W/m2
12:30 18.6 °C 11.7 °C 1017.6 hPa East 1.4 km/h 4.8 km/h 64% 0.0 mm 341 W/m2
12:35 18.7 °C 11.5 °C 1017.6 hPa SSE 3.2 km/h 4.8 km/h 63% 0.0 mm 334 W/m2
12:40 18.7 °C 11.3 °C 1017.6 hPa North 1.4 km/h 6.4 km/h 62% 0.0 mm 355 W/m2
12:45 18.7 °C 11.8 °C 1017.6 hPa Calm   9.7 km/h 64% 0.0 mm 381 W/m2
12:50 18.9 °C 11.9 °C 1017.6 hPa East 1.4 km/h 3.2 km/h 64% 0.0 mm 311 W/m2
12:55 19.2 °C 12.2 °C 1017.6 hPa East 4.7 km/h 4.8 km/h 64% 0.0 mm 932 W/m2
13:00 19.4 °C 11.9 °C 1017.6 hPa ESE 3.2 km/h 8 km/h 62% 0.0 mm 932 W/m2
13:05 19.8 °C 12.1 °C 1017.3 hPa East 1.4 km/h 3.2 km/h 61% 0.0 mm 835 W/m2
13:11 20.1 °C 12.1 °C 1017.3 hPa NE 3.2 km/h 8 km/h 60% 0.0 mm 814 W/m2
13:16 20.3 °C 12.3 °C 1017.3 hPa NE 4.7 km/h 6.4 km/h 60% 0.0 mm 923 W/m2
13:21 20.2 °C 11.9 °C 1017.3 hPa South 3.2 km/h 4.8 km/h 59% 0.0 mm 373 W/m2
13:26 20.3 °C 12.3 °C 1017.3 hPa ENE 1.4 km/h 11.3 km/h 60% 0.0 mm 993 W/m2
13:31 20.4 °C 12.6 °C 1017.3 hPa NNW 1.4 km/h 4.8 km/h 61% 0.0 mm 490 W/m2
13:36 20.3 °C 12 °C 1017.3 hPa NNW 3.2 km/h 9.7 km/h 59% 0.0 mm 279 W/m2
13:41 20.2 °C 12.4 °C 1017.3 hPa Calm   3.2 km/h 61% 0.0 mm 246 W/m2
13:46 20 °C 11.5 °C 1017.3 hPa NNW 1.4 km/h 3.2 km/h 58% 0.0 mm 209 W/m2
13:51 19.9 °C 11.6 °C 1017.3 hPa ENE 1.4 km/h 3.2 km/h 59% 0.0 mm 223 W/m2
13:56 19.8 °C 11.6 °C 1017.3 hPa WSW 4.7 km/h 6.4 km/h 59% 0.0 mm 250 W/m2
14:01 19.8 °C 11.8 °C 1017.3 hPa NNW 1.4 km/h 6.4 km/h 60% 0.0 mm 287 W/m2
14:06 19.8 °C 11.8 °C 1017.3 hPa NW 4.7 km/h 4.8 km/h 60% 0.0 mm 403 W/m2
14:11 19.8 °C 11.6 °C 1017.3 hPa West 1.4 km/h 3.2 km/h 59% 0.0 mm 376 W/m2
14:16 19.9 °C 11.9 °C 1017.3 hPa East 1.4 km/h 8 km/h 60% 0.0 mm 359 W/m2
14:21 20.1 °C 12.1 °C 1016.9 hPa Calm   3.2 km/h 60% 0.0 mm 427 W/m2
14:26 20.3 °C 12 °C 1017.3 hPa NE 4.7 km/h 9.7 km/h 59% 0.0 mm 833 W/m2
14:31 20.6 °C 12 °C 1016.9 hPa ESE 3.2 km/h 4.8 km/h 58% 0.0 mm 719 W/m2
14:36 20.7 °C 12.1 °C 1016.9 hPa NNW 1.4 km/h 4.8 km/h 58% 0.0 mm 918 W/m2
14:41 20.9 °C 11.8 °C 1016.9 hPa SW 1.4 km/h 1.6 km/h 56% 0.0 mm 870 W/m2
14:46 21 °C 12.4 °C 1016.9 hPa North 4.7 km/h 4.8 km/h 58% 0.0 mm 879 W/m2
14:51 21.3 °C 12.2 °C 1016.9 hPa NW 6.4 km/h 6.4 km/h 56% 0.0 mm 789 W/m2
14:56 21.3 °C 12.2 °C 1016.9 hPa ESE 4.7 km/h 9.7 km/h 56% 0.0 mm 186 W/m2
15:01 21.1 °C 12 °C 1016.9 hPa North 1.4 km/h 3.2 km/h 56% 0.0 mm 185 W/m2
15:06 20.9 °C 11.8 °C 1016.9 hPa NE 3.2 km/h 9.7 km/h 56% 0.0 mm 221 W/m2
15:11 20.7 °C 11.6 °C 1016.9 hPa North 3.2 km/h 4.8 km/h 56% 0.0 mm 206 W/m2
15:16 20.7 °C 12.1 °C 1016.9 hPa SE 4.7 km/h 9.7 km/h 58% 0.0 mm 763 W/m2
15:21 20.8 °C 11.7 °C 1016.9 hPa SE 4.7 km/h 6.4 km/h 56% 0.0 mm 292 W/m2
15:26 21 °C 11.6 °C 1016.9 hPa NW 3.2 km/h 4.8 km/h 55% 0.0 mm 257 W/m2
15:31 20.9 °C 11.5 °C 1016.9 hPa ENE 3.2 km/h 3.2 km/h 55% 0.0 mm 390 W/m2
15:36 20.9 °C 11.2 °C 1016.9 hPa NW 3.2 km/h 6.4 km/h 54% 0.0 mm 304 W/m2
15:41 20.8 °C 11.4 °C 1016.9 hPa ENE 1.4 km/h 4.8 km/h 55% 0.0 mm 330 W/m2
15:46 21 °C 11.1 °C 1016.9 hPa Calm   6.4 km/h 53% 0.0 mm 415 W/m2
15:51 21.3 °C 11.3 °C 1016.9 hPa South 3.2 km/h 3.2 km/h 53% 0.0 mm 745 W/m2
15:56 21.7 °C 12 °C 1016.9 hPa Calm   4.8 km/h 54% 0.0 mm 715 W/m2
16:02 21.9 °C 12.2 °C 1016.6 hPa ENE 3.2 km/h 4.8 km/h 54% 0.0 mm 740 W/m2
16:07 21.9 °C 11.3 °C 1016.6 hPa SE 1.4 km/h 3.2 km/h 51% 0.0 mm 647 W/m2
16:12 21.8 °C 11.8 °C 1016.6 hPa WNW 3.2 km/h 6.4 km/h 53% 0.0 mm 580 W/m2
16:17 21.8 °C 11.8 °C 1016.6 hPa SSE 3.2 km/h 4.8 km/h 53% 0.0 mm 209 W/m2
16:22 21.9 °C 11.6 °C 1016.6 hPa East 3.2 km/h 3.2 km/h 52% 0.0 mm 207 W/m2
16:27 21.9 °C 11.6 °C 1016.6 hPa Calm   1.6 km/h 52% 0.0 mm 171 W/m2
16:32 22.1 °C 11.5 °C 1016.6 hPa North 1.4 km/h 3.2 km/h 51% 0.0 mm 691 W/m2
16:37 22.2 °C 11.9 °C 1016.6 hPa NE 1.4 km/h 6.4 km/h 52% 0.0 mm 694 W/m2
16:42 22.3 °C 11.4 °C 1016.6 hPa NNW 3.2 km/h 6.4 km/h 50% 0.0 mm 679 W/m2
16:47 22.4 °C 12.1 °C 1016.6 hPa SSE 1.4 km/h 3.2 km/h 52% 0.0 mm 647 W/m2
16:52 22.7 °C 11.4 °C 1016.6 hPa ESE 3.2 km/h 4.8 km/h 49% 0.0 mm 615 W/m2
16:57 22.5 °C 11.3 °C 1016.6 hPa SE 1.4 km/h 1.6 km/h 49% 0.0 mm 178 W/m2
17:02 22.7 °C 12.3 °C 1016.6 hPa East 1.4 km/h 1.6 km/h 52% 0.0 mm 606 W/m2
17:07 22.9 °C 11.3 °C 1016.6 hPa NNE 1.4 km/h 4.8 km/h 48% 0.0 mm 561 W/m2
17:12 22.8 °C 11.5 °C 1016.6 hPa ESE 4.7 km/h 9.7 km/h 49% 0.0 mm 554 W/m2
17:17 22.8 °C 11.2 °C 1016.6 hPa NNE 1.4 km/h 6.4 km/h 48% 0.0 mm 522 W/m2
17:22 22.7 °C 11.4 °C 1016.6 hPa SW 3.2 km/h 9.7 km/h 49% 0.0 mm 534 W/m2
17:28 22.8 °C 11.2 °C 1016.6 hPa East 1.4 km/h 6.4 km/h 48% 0.0 mm 545 W/m2
17:33 22.8 °C 11.8 °C 1016.6 hPa East 3.2 km/h 9.7 km/h 50% 0.0 mm 543 W/m2
17:38 22.9 °C 11.3 °C 1016.6 hPa ENE 3.2 km/h 8 km/h 48% 0.0 mm 541 W/m2
17:43 22.9 °C 11.9 °C 1016.6 hPa ESE 4.7 km/h 4.8 km/h 50% 0.0 mm 494 W/m2
17:48 22.9 °C 11.3 °C 1016.6 hPa NNW 3.2 km/h 4.8 km/h 48% 0.0 mm 496 W/m2
17:53 22.9 °C 11.3 °C 1016.6 hPa East 3.2 km/h 4.8 km/h 48% 0.0 mm 446 W/m2
17:58 23 °C 11.7 °C 1016.6 hPa ESE 1.4 km/h 6.4 km/h 49% 0.0 mm 334 W/m2
18:03 23.1 °C 12.1 °C 1016.6 hPa Calm   3.2 km/h 50% 0.0 mm 424 W/m2
18:08 23.2 °C 11.3 °C 1016.6 hPa SE 4.7 km/h 9.7 km/h 47% 0.0 mm 404 W/m2
18:13 23.2 °C 11.3 °C 1016.9 hPa ESE 1.4 km/h 4.8 km/h 47% 0.0 mm 378 W/m2
18:18 23.1 °C 11.2 °C 1016.6 hPa ENE 3.2 km/h 4.8 km/h 47% 0.0 mm 353 W/m2
18:23 23.1 °C 11.2 °C 1016.6 hPa Calm   4.8 km/h 47% 0.0 mm 334 W/m2
18:28 22.9 °C 11 °C 1016.9 hPa SE 4.7 km/h 4.8 km/h 47% 0.0 mm 320 W/m2
18:33 22.7 °C 11.1 °C 1016.9 hPa NNE 3.2 km/h 3.2 km/h 48% 0.0 mm 283 W/m2
18:38 22.8 °C 10.9 °C 1016.9 hPa Calm   1.6 km/h 47% 0.0 mm 257 W/m2
18:43 23 °C 11.1 °C 1016.9 hPa ESE 3.2 km/h 4.8 km/h 47% 0.0 mm 230 W/m2
18:48 23 °C 11.1 °C 1016.9 hPa SE 1.4 km/h 4.8 km/h 47% 0.0 mm 230 W/m2
18:54 22.8 °C 10.9 °C 1016.9 hPa Calm   4.8 km/h 47% 0.0 mm 213 W/m2
18:59 22.7 °C 11.4 °C 1016.9 hPa WNW 1.4 km/h 3.2 km/h 49% 0.0 mm 58 W/m2
19:04 22.4 °C 11.8 °C 1016.9 hPa Calm   1.6 km/h 51% 0.0 mm 42 W/m2
19:09 22.1 °C 12.4 °C 1016.9 hPa Calm   4.8 km/h 54% 0.0 mm 77 W/m2
19:14 21.8 °C 12.4 °C 1016.9 hPa Calm     55% 0.0 mm 125 W/m2
19:19 21.6 °C 12.4 °C 1016.9 hPa Calm     56% 0.0 mm 33 W/m2
19:24 21.3 °C 12.4 °C 1016.9 hPa WNW 1.4 km/h 1.6 km/h 57% 0.0 mm 33 W/m2
19:29 21.1 °C 12.2 °C 1016.9 hPa WNW 1.4 km/h 1.6 km/h 57% 0.0 mm 28 W/m2
19:34 20.7 °C 12.1 °C 1016.9 hPa WNW 1.4 km/h 1.6 km/h 58% 0.0 mm 23 W/m2
19:39 20.4 °C 12.1 °C 1017.3 hPa Calm   3.2 km/h 59% 0.0 mm 19 W/m2
19:44 19.9 °C 11.9 °C 1016.9 hPa WNW 1.4 km/h 1.6 km/h 60% 0.0 mm 16 W/m2
19:49 19.6 °C 12.1 °C 1017.3 hPa WNW 1.4 km/h 3.2 km/h 62% 0.0 mm 14 W/m2
19:54 19.2 °C 12 °C 1017.3 hPa Calm   1.6 km/h 63% 0.0 mm 11 W/m2
19:59 18.8 °C 11.6 °C 1017.3 hPa Calm   1.6 km/h 63% 0.0 mm 7 W/m2
20:04 18.6 °C 11.7 °C 1017.3 hPa Calm   1.6 km/h 64% 0.0 mm 5 W/m2
20:09 18.3 °C 11.6 °C 1017.3 hPa Calm   1.6 km/h 65% 0.0 mm 0 W/m2
20:14 18.1 °C 11.4 °C 1017.6 hPa Calm   1.6 km/h 65% 0.0 mm 0 W/m2
20:19 17.8 °C 11.4 °C 1017.6 hPa Calm   1.6 km/h 66% 0.0 mm 0 W/m2
20:24 17.6 °C 11.4 °C 1017.6 hPa Calm     67% 0.0 mm 0 W/m2
20:29 17.3 °C 11.1 °C 1017.6 hPa Calm     67% 0.0 mm 0 W/m2
20:34 17.2 °C 11.2 °C 1017.6 hPa Calm     68% 0.0 mm 0 W/m2
20:39 16.9 °C 11 °C 1017.6 hPa Calm     68% 0.0 mm 0 W/m2
20:44 16.8 °C 10.9 °C 1018.0 hPa Calm     68% 0.0 mm 0 W/m2
20:49 16.6 °C 10.9 °C 1018.0 hPa Calm     69% 0.0 mm 0 W/m2
20:54 16.4 °C 10.7 °C 1018.0 hPa Calm     69% 0.0 mm 0 W/m2
20:59 16.2 °C 10.7 °C 1018.0 hPa Calm     70% 0.0 mm 0 W/m2
21:04 16.1 °C 10.8 °C 1018.0 hPa Calm     71% 0.0 mm 0 W/m2
21:09 15.9 °C 10.4 °C 1018.0 hPa Calm     70% 0.0 mm 0 W/m2
21:14 15.7 °C 10.7 °C 1018.0 hPa Calm     72% 0.0 mm 0 W/m2
21:19 15.6 °C 10.8 °C 1018.3 hPa Calm     73% 0.0 mm 0 W/m2
21:24 15.4 °C 10.6 °C 1018.3 hPa Calm     73% 0.0 mm 0 W/m2
21:29 15.3 °C 10.5 °C 1018.3 hPa Calm     73% 0.0 mm 0 W/m2
21:34 15.1 °C 10.5 °C 1018.3 hPa Calm     74% 0.0 mm 0 W/m2
21:39 15 °C 10.6 °C 1018.6 hPa Calm     75% 0.0 mm 0 W/m2
21:44 14.9 °C 10.7 °C 1018.6 hPa WNW 3.2 km/h 3.2 km/h 76% 0.0 mm 0 W/m2
21:49 14.9 °C 10.9 °C 1018.6 hPa Calm     77% 0.0 mm 0 W/m2
21:54 14.9 °C 10.9 °C 1018.6 hPa WNW 3.2 km/h 3.2 km/h 77% 0.0 mm 0 W/m2
21:59 14.8 °C 10.6 °C 1018.6 hPa WNW 1.4 km/h 3.2 km/h 76% 0.0 mm 0 W/m2
22:04 14.7 °C 10.7 °C 1018.6 hPa Calm     77% 0.0 mm 0 W/m2
22:09 14.7 °C 10.7 °C 1018.6 hPa Calm     77% 0.0 mm 0 W/m2
22:14 14.7 °C 10.7 °C 1018.6 hPa Calm     77% 0.0 mm 0 W/m2
22:19 14.7 °C 10.7 °C 1018.6 hPa Calm     77% 0.0 mm 0 W/m2
22:24 14.7 °C 10.7 °C 1018.6 hPa Calm     77% 0.0 mm 0 W/m2
22:29 14.6 °C 10.6 °C 1018.6 hPa Calm     77% 0.0 mm 0 W/m2
22:34 14.6 °C 10.6 °C 1018.6 hPa Calm     77% 0.0 mm 0 W/m2
22:39 14.5 °C 10.5 °C 1018.6 hPa Calm     77% 0.0 mm 0 W/m2
22:44 14.4 °C 10.4 °C 1018.6 hPa Calm     77% 0.0 mm 0 W/m2
22:49 14.4 °C 10.4 °C 1018.6 hPa Calm     77% 0.0 mm 0 W/m2
22:54 14.3 °C 10.5 °C 1018.6 hPa Calm     78% 0.0 mm 0 W/m2
22:59 14.2 °C 10.4 °C 1018.6 hPa Calm     78% 0.0 mm 0 W/m2
23:04 14.1 °C 10.5 °C 1018.6 hPa Calm     79% 0.0 mm 0 W/m2
23:09 14 °C 10.6 °C 1018.6 hPa Calm     80% 0.0 mm 0 W/m2
23:14 13.9 °C 10.5 °C 1018.6 hPa Calm     80% 0.0 mm 0 W/m2
23:19 13.8 °C 10.6 °C 1018.6 hPa Calm     81% 0.0 mm 0 W/m2
23:24 13.7 °C 10.5 °C 1018.6 hPa Calm     81% 0.0 mm 0 W/m2
23:29 13.6 °C 10.4 °C 1018.6 hPa Calm     81% 0.0 mm 0 W/m2
23:34 13.4 °C 10.4 °C 1018.6 hPa Calm     82% 0.0 mm 0 W/m2
23:39 13.3 °C 10.3 °C 1018.6 hPa Calm     82% 0.0 mm 0 W/m2
23:44 13.3 °C 10.3 °C 1018.6 hPa Calm     82% 0.0 mm 0 W/m2
23:49 13.2 °C 10.2 °C 1018.6 hPa Calm     82% 0.0 mm 0 W/m2
23:54 13.1 °C 10.3 °C 1018.6 hPa Calm     83% 0.0 mm 0 W/m2
23:59 13 °C 10.2 °C 1018.6 hPa Calm     83% 0.0 mm 0 W/m2
Juneau County Weather
Compliments of Weather Underground - 4 mb